Historique des mesures à Cassis (13260), France
Quotidien Résumé Avril 14, 2020 Unités:  Métrique    US   Métrique/US
Quotidien Hebdomadaire Mensuel Annuel
  Maximum: Minimum: Moyenne:
Température: 30.6 °C 20.4 °C 25.9 °C
Point de rosée: 17.6 °C 11 °C 14.4 °C
Humidité: 66% 32% 51%
Vitesse du vent: 10.1km/h 0km/h 2.6km/h
Rafales: 28.4km/h - -
Vent- - SSW
Pression: 1012.3 hPa 1008.9 hPa -
Précipitations: 0.0 mm    
Historical Graphs
 
 
Mesures pour : Avril 14, 2020
Heure Temperature Point de rosée Pression Vent Vitesse du vent Rafales Humidité Pluie (par heure)
01:11 22.3 °C 15.6 °C 1012.3 hPa Calm   1.8 km/h 66% 0.0 mm
02:11 22.1 °C 15 °C 1012.3 hPa Calm   1.8 km/h 64% 0.0 mm
03:11 21.6 °C 14.2 °C 1011.8 hPa NW 4 km/h 6.1 km/h 63% 0.0 mm
04:11 21.1 °C 13.8 °C 1011.5 hPa Calm   2.9 km/h 63% 0.0 mm
05:11 20.9 °C 13.8 °C 1011.5 hPa Calm   4 km/h 64% 0.0 mm
06:11 20.4 °C 13.8 °C 1011.5 hPa Calm   4 km/h 66% 0.0 mm
07:11 20.9 °C 14.3 °C 1011.6 hPa Calm   4.3 km/h 66% 0.0 mm
08:11 25.1 °C 15.4 °C 1011.5 hPa Calm   11.2 km/h 55% 0.0 mm
09:11 24.1 °C 15.1 °C 1011.5 hPa NNW 4 km/h 4 km/h 57% 0.0 mm
10:11 24.5 °C 16 °C 1012.0 hPa SSE 4 km/h 8.6 km/h 59% 0.0 mm
11:11 28.7 °C 17.6 °C 1011.4 hPa SE 6.1 km/h 10.4 km/h 51% 0.0 mm
12:11 29.4 °C 16.9 °C 1011.2 hPa SE 5.4 km/h 9 km/h 47% 0.0 mm
13:11 29.9 °C 17 °C 1011.0 hPa SSE 3.6 km/h 13.3 km/h 46% 0.0 mm
14:11 30.6 °C 16.9 °C 1010.3 hPa SE 2.5 km/h 16.9 km/h 44% 0.0 mm
15:11 29.8 °C 12.6 °C 1009.8 hPa WNW 10.1 km/h 28.4 km/h 35% 0.0 mm
16:11 30.1 °C 12 °C 1009.6 hPa Calm   16.9 km/h 33% 0.0 mm
17:11 29.7 °C 11.7 °C 1009.2 hPa WNW 3.2 km/h 23 km/h 33% 0.0 mm
18:11 30.4 °C 11.8 °C 1008.9 hPa SSW 5.4 km/h 12.2 km/h 32% 0.0 mm
19:11 29 °C 12.7 °C 1009.2 hPa ESE 3.2 km/h 11.9 km/h 37% 0.0 mm
20:11 28 °C 11 °C 1009.2 hPa Calm   11.2 km/h 35% 0.0 mm
Observations météo à CASSIS
WU-History script by Weather Underground - 2 mb